Time;durP1;ratioP1;P1;durP2;ratioP2;P2;SDS_P1;SDS_P2;PMS_P1;PMS_P2;Temp;Humidity;BMP_temperature;BMP_pressure;BME280_temperature;BME280_humidity;BME280_pressure;Samples;Min_cycle;Max_cycle;Signal;HPM_P1;HPM_P2
2021/03/05 00:01:16;;;;;;;;;;;;;;;;;;4959050;28;20363;-66
2021/03/05 00:03:42;;;;;;;;;;;;;;;;;;4959815;28;19941;-66
2021/03/05 00:06:09;;;;;;;;;;;;;;;;;;4970491;28;19926;-67
2021/03/05 00:08:35;;;;;;;;;;;;;;;;;;4968214;28;20219;-66
2021/03/05 00:11:01;;;;;;;;;;;;;;;;;;4973783;28;20303;-66
2021/03/05 00:13:28;;;;;;;;;;;;;;;;;;4971423;28;19927;-66
2021/03/05 00:15:54;;;;;;;;;;;;;;;;;;4966714;28;19927;-66
2021/03/05 00:18:21;;;;;;;;;;;;;;;;;;4973430;28;19973;-66
2021/03/05 00:20:47;;;;;;;;;;;;;;;;;;4969001;28;19926;-66
2021/03/05 00:23:13;;;;;;;;;;;;;;;;;;4973873;28;19933;-66
2021/03/05 00:25:40;;;;;;;;;;;;;;;;;;4965940;28;20282;-66
2021/03/05 00:28:06;;;;;;;;;;;;;;;;;;4958891;28;20347;-65
2021/03/05 00:30:33;;;;;;;;;;;;;;;;;;4959506;28;20191;-66
2021/03/05 00:32:59;;;;;;;;;;;;;;;;;;4964357;28;20017;-65
2021/03/05 00:35:26;;;;;;;;;;;;;;;;;;4958736;28;20395;-65
2021/03/05 00:37:52;;;;;;;;;;;;;;;;;;4961910;28;19927;-65
2021/03/05 00:40:19;;;;;;;;;;;;;;;;;;4956040;28;19938;-65
2021/03/05 00:42:45;;;;;;;;;;;;;;;;;;4963416;28;19931;-65
2021/03/05 00:45:12;;;;;;;;;;;;;;;;;;4959093;28;19933;-65
2021/03/05 00:47:38;;;;;;;;;;;;;;;;;;4958966;28;19926;-66
2021/03/05 00:50:05;;;;;;;;;;;;;;;;;;4956671;28;19933;-68
2021/03/05 00:52:31;;;;;;;;;;;;;;;;;;4961087;28;20033;-66
2021/03/05 00:54:57;;;;;;;;;;;;;;;;;;4958447;28;19927;-66
2021/03/05 00:57:24;;;;;;;;;;;;;;;;;;4954744;28;20014;-66
2021/03/05 00:59:50;;;;;;;;;;;;;;;;;;4955754;28;19988;-66
2021/03/05 01:02:17;;;;;;;;;;;;;;;;;;4962946;28;19980;-66
2021/03/05 01:04:43;;;;;;;;;;;;;;;;;;4954978;28;19926;-67
2021/03/05 01:07:10;;;;;;;;;;;;;;;;;;4957292;28;20290;-66
2021/03/05 01:09:36;;;;;;;;;;;;;;;;;;4956826;28;19938;-66
2021/03/05 01:12:02;;;;;;;;;;;;;;;;;;4960695;28;19937;-66
2021/03/05 01:14:29;;;;;;;;;;;;;;;;;;4959165;28;19930;-66
2021/03/05 01:16:55;;;;;;;;;;;;;;;;;;4965443;28;19930;-65
2021/03/05 01:19:22;;;;;;;;;;;;;;;;;;4958351;28;19926;-65
2021/03/05 01:21:48;;;;;;;;;;;;;;;;;;4957042;28;20414;-65
2021/03/05 01:24:15;;;;;;;;;;;;;;;;;;4955504;28;19938;-65
2021/03/05 01:26:42;;;;;;;;;;;;;;;;;;4959981;28;20021;-65
2021/03/05 01:29:08;;;;;;;;;;;;;;;;;;4954230;28;19941;-65
2021/03/05 01:31:34;;;;;;;;;;;;;;;;;;4958943;28;19989;-66
2021/03/05 01:34:01;;;;;;;;;;;;;;;;;;4956242;28;19949;-66
2021/03/05 01:36:27;;;;;;;;;;;;;;;;;;4955864;28;20379;-66
2021/03/05 01:38:54;;;;;;;;;;;;;;;;;;4959906;28;19926;-66
2021/03/05 01:41:20;;;;;;;;;;;;;;;;;;4953292;28;19927;-66
2021/03/05 01:43:47;;;;;;;;;;;;;;;;;;4952111;28;19926;-67
2021/03/05 01:46:13;;;;;;;;;;;;;;;;;;4956543;28;20071;-66
2021/03/05 01:48:40;;;;;;;;;;;;;;;;;;4952563;28;19950;-66
2021/03/05 01:51:06;;;;;;;;;;;;;;;;;;4957557;28;19926;-66
2021/03/05 01:53:33;;;;;;;;;;;;;;;;;;4958647;28;19981;-66
2021/03/05 01:55:59;;;;;;;;;;;;;;;;;;4953971;28;19938;-65
2021/03/05 01:58:25;;;;;;;;;;;;;;;;;;4952990;28;20375;-65
2021/03/05 02:00:52;;;;;;;;;;;;;;;;;;4953665;28;19931;-65
2021/03/05 02:03:18;;;;;;;;;;;;;;;;;;4953322;28;19926;-65
2021/03/05 02:05:45;;;;;;;;;;;;;;;;;;4960070;28;19930;-65
2021/03/05 02:08:11;;;;;;;;;;;;;;;;;;4962206;28;19933;-65
2021/03/05 02:10:38;;;;;;;;;;;;;;;;;;4956100;28;19926;-66
2021/03/05 02:13:04;;;;;;;;;;;;;;;;;;4959890;28;19926;-67
2021/03/05 02:15:31;;;;;;;;;;;;;;;;;;4957050;28;20331;-66
2021/03/05 02:17:57;;;;;;;;;;;;;;;;;;4952151;28;19930;-67
2021/03/05 02:20:23;;;;;;;;;;;;;;;;;;4955334;28;20351;-66
2021/03/05 02:22:50;;;;;;;;;;;;;;;;;;4958053;28;19973;-67
2021/03/05 02:25:16;;;;;;;;;;;;;;;;;;4955665;28;19977;-66
2021/03/05 02:27:43;;;;;;;;;;;;;;;;;;4964770;28;19926;-66
2021/03/05 02:30:09;;;;;;;;;;;;;;;;;;4952584;28;20395;-66
2021/03/05 02:32:36;;;;;;;;;;;;;;;;;;4967324;28;19926;-66
2021/03/05 02:35:02;;;;;;;;;;;;;;;;;;4957117;28;19973;-66
2021/03/05 02:37:29;;;;;;;;;;;;;;;;;;4953586;28;19926;-66
2021/03/05 02:39:55;;;;;;;;;;;;;;;;;;4953884;28;19981;-67
2021/03/05 02:42:21;;;;;;;;;;;;;;;;;;4958472;28;20414;-66
2021/03/05 02:44:48;;;;;;;;;;;;;;;;;;4955108;28;19933;-66
2021/03/05 02:47:14;;;;;;;;;;;;;;;;;;4952587;28;19937;-67
2021/03/05 02:49:41;;;;;;;;;;;;;;;;;;4954993;28;19930;-66
2021/03/05 02:52:07;;;;;;;;;;;;;;;;;;4953315;28;19927;-66
2021/03/05 02:54:34;;;;;;;;;;;;;;;;;;4955421;28;19927;-66
2021/03/05 02:57:00;;;;;;;;;;;;;;;;;;4951715;28;19927;-66
2021/03/05 02:59:26;;;;;;;;;;;;;;;;;;4954779;28;19926;-66
2021/03/05 03:01:53;;;;;;;;;;;;;;;;;;4948639;28;19930;-67
2021/03/05 03:04:19;;;;;;;;;;;;;;;;;;4961593;28;20390;-66
2021/03/05 03:06:46;;;;;;;;;;;;;;;;;;4950148;28;20398;-66
2021/03/05 03:09:12;;;;;;;;;;;;;;;;;;4956037;28;19926;-66
2021/03/05 03:11:39;;;;;;;;;;;;;;;;;;4955614;28;19934;-66
2021/03/05 03:14:05;;;;;;;;;;;;;;;;;;4953226;28;19937;-66
2021/03/05 03:16:32;;;;;;;;;;;;;;;;;;4955091;28;19926;-66
2021/03/05 03:18:58;;;;;;;;;;;;;;;;;;4965251;28;20013;-66
2021/03/05 03:21:25;;;;;;;;;;;;;;;;;;4948670;28;19927;-66
2021/03/05 03:23:51;;;;;;;;;;;;;;;;;;4952332;28;19981;-66
2021/03/05 03:26:17;;;;;;;;;;;;;;;;;;4952683;28;19933;-67
2021/03/05 03:28:44;;;;;;;;;;;;;;;;;;4953485;28;19926;-66
2021/03/05 03:31:14;;;;;;;;;;;;;;;;;;4956771;28;19926;-66
2021/03/05 03:33:40;;;;;;;;;;;;;;;;;;4957389;28;19976;-66
2021/03/05 03:36:07;;;;;;;;;;;;;;;;;;4977861;23;19926;-69
2021/03/05 03:38:33;;;;;;;;;;;;;;;;;;4963603;28;19930;-69
2021/03/05 03:41:00;;;;;;;;;;;;;;;;;;4967526;28;19933;-70
2021/03/05 03:43:26;;;;;;;;;;;;;;;;;;4968724;28;19926;-68
2021/03/05 03:45:53;;;;;;;;;;;;;;;;;;4963440;28;20013;-69
2021/03/05 03:48:19;;;;;;;;;;;;;;;;;;4960917;28;19926;-68
2021/03/05 03:50:46;;;;;;;;;;;;;;;;;;4963781;28;19985;-68
2021/03/05 03:53:12;;;;;;;;;;;;;;;;;;4954634;28;19926;-68
2021/03/05 03:55:39;;;;;;;;;;;;;;;;;;4947612;28;19927;-69
2021/03/05 03:58:05;;;;;;;;;;;;;;;;;;4961119;28;19938;-68
2021/03/05 04:00:32;;;;;;;;;;;;;;;;;;4958610;28;20522;-69
2021/03/05 04:02:58;;;;;;;;;;;;;;;;;;4961204;28;20398;-69
2021/03/05 04:05:24;;;;;;;;;;;;;;;;;;4944868;28;19930;-69
2021/03/05 04:07:51;;;;;;;;;;;;;;;;;;4958513;28;19933;-69
2021/03/05 04:10:17;;;;;;;;;;;;;;;;;;4956298;28;19927;-69
2021/03/05 04:12:44;;;;;;;;;;;;;;;;;;4956946;28;20298;-68
2021/03/05 04:15:10;;;;;;;;;;;;;;;;;;4956758;28;19926;-69
2021/03/05 04:17:37;;;;;;;;;;;;;;;;;;4951494;28;20395;-69
2021/03/05 04:20:03;;;;;;;;;;;;;;;;;;4955074;28;19930;-69
2021/03/05 04:22:30;;;;;;;;;;;;;;;;;;4954684;28;19986;-69
2021/03/05 04:24:56;;;;;;;;;;;;;;;;;;4961548;28;20057;-70
2021/03/05 04:27:23;;;;;;;;;;;;;;;;;;4949266;28;19933;-69
2021/03/05 04:29:49;;;;;;;;;;;;;;;;;;4961376;28;20449;-69
2021/03/05 04:32:16;;;;;;;;;;;;;;;;;;4960503;28;20024;-69
2021/03/05 04:34:42;;;;;;;;;;;;;;;;;;4955446;28;20016;-69
2021/03/05 04:37:09;;;;;;;;;;;;;;;;;;4958242;28;20171;-69
2021/03/05 04:39:35;;;;;;;;;;;;;;;;;;4966003;28;19927;-69
2021/03/05 04:42:02;;;;;;;;;;;;;;;;;;4955404;28;19927;-69
2021/03/05 04:44:28;;;;;;;;;;;;;;;;;;4949854;28;19950;-69
2021/03/05 04:46:55;;;;;;;;;;;;;;;;;;4955387;28;19930;-70
2021/03/05 04:49:21;;;;;;;;;;;;;;;;;;4970689;28;20268;-69
2021/03/05 04:51:48;;;;;;;;;;;;;;;;;;4962213;28;19996;-68
2021/03/05 04:54:14;;;;;;;;;;;;;;;;;;4952986;28;20021;-67
2021/03/05 04:56:40;;;;;;;;;;;;;;;;;;4952474;28;19938;-69
2021/03/05 04:59:07;;;;;;;;;;;;;;;;;;4947698;28;19927;-69
2021/03/05 05:01:33;;;;;;;;;;;;;;;;;;4946553;28;19935;-69
2021/03/05 05:04:00;;;;;;;;;;;;;;;;;;4955198;28;19931;-68
2021/03/05 05:06:26;;;;;;;;;;;;;;;;;;4960035;28;20334;-69
2021/03/05 05:08:53;;;;;;;;;;;;;;;;;;4944375;28;20361;-68
2021/03/05 05:11:19;;;;;;;;;;;;;;;;;;4961492;28;19933;-68
2021/03/05 05:13:46;;;;;;;;;;;;;;;;;;4953112;28;19926;-68
2021/03/05 05:16:12;;;;;;;;;;;;;;;;;;4958460;28;20207;-71
2021/03/05 05:18:39;;;;;;;;;;;;;;;;;;4958565;28;19926;-69
2021/03/05 05:21:05;;;;;;;;;;;;;;;;;;4954469;28;19926;-69
2021/03/05 05:23:32;;;;;;;;;;;;;;;;;;4957882;28;19950;-70
2021/03/05 05:25:58;;;;;;;;;;;;;;;;;;4956823;28;19934;-71
2021/03/05 05:28:24;;;;;;;;;;;;;;;;;;4963253;28;19932;-70
2021/03/05 05:30:51;;;;;;;;;;;;;;;;;;4958219;28;19943;-70
2021/03/05 05:33:20;;;;;;;;;;;;;;;;;;4959610;28;19941;-71
2021/03/05 05:35:49;;;;;;;;;;;;;;;;;;4955608;28;19926;-69
2021/03/05 05:38:16;;;;;;;;;;;;;;;;;;4957882;28;19972;-69
2021/03/05 05:40:42;;;;;;;;;;;;;;;;;;4951056;28;19933;-69
2021/03/05 05:43:09;;;;;;;;;;;;;;;;;;4952632;28;19926;-69
2021/03/05 05:45:35;;;;;;;;;;;;;;;;;;4961541;28;19973;-69
2021/03/05 05:48:02;;;;;;;;;;;;;;;;;;4953374;28;20029;-69
2021/03/05 05:50:28;;;;;;;;;;;;;;;;;;4955867;28;19926;-70
2021/03/05 05:52:55;;;;;;;;;;;;;;;;;;4949615;28;19927;-70
2021/03/05 05:55:21;;;;;;;;;;;;;;;;;;4955340;28;20450;-69
2021/03/05 05:57:48;;;;;;;;;;;;;;;;;;4956460;28;19926;-67
2021/03/05 06:00:14;;;;;;;;;;;;;;;;;;4959020;28;19926;-68
2021/03/05 06:02:42;;;;;;;;;;;;;;;;;;4951265;28;19927;-68
2021/03/05 06:05:09;;;;;;;;;;;;;;;;;;4958837;28;20017;-67
2021/03/05 06:07:35;;;;;;;;;;;;;;;;;;4951877;28;20045;-68
2021/03/05 06:10:02;;;;;;;;;;;;;;;;;;4956920;28;20032;-68
2021/03/05 06:12:28;;;;;;;;;;;;;;;;;;4954212;28;19938;-69
2021/03/05 06:14:55;;;;;;;;;;;;;;;;;;4958192;28;20310;-68
2021/03/05 06:17:21;;;;;;;;;;;;;;;;;;4960723;28;19962;-68
2021/03/05 06:19:48;;;;;;;;;;;;;;;;;;4966016;28;20280;-68
2021/03/05 06:22:14;;;;;;;;;;;;;;;;;;4974025;28;19972;-69
2021/03/05 06:24:41;;;;;;;;;;;;;;;;;;4960524;28;19938;-70
2021/03/05 06:27:07;;;;;;;;;;;;;;;;;;4964049;28;20060;-69
2021/03/05 06:29:34;;;;;;;;;;;;;;;;;;4975136;28;19976;-68
2021/03/05 06:32:00;;;;;;;;;;;;;;;;;;4966454;28;19927;-68
2021/03/05 06:34:27;;;;;;;;;;;;;;;;;;4966934;28;19930;-68
2021/03/05 06:36:53;;;;;;;;;;;;;;;;;;4964026;28;19934;-69
2021/03/05 06:39:20;;;;;;;;;;;;;;;;;;4960552;28;20305;-69
2021/03/05 06:41:46;;;;;;;;;;;;;;;;;;4967301;28;20013;-69
2021/03/05 06:44:12;;;;;;;;;;;;;;;;;;4964604;28;19937;-69
2021/03/05 06:46:39;;;;;;;;;;;;;;;;;;4946151;28;19927;-70
2021/03/05 06:49:05;;;;;;;;;;;;;;;;;;4947465;28;19927;-69
2021/03/05 06:51:33;;;;;;;;;;;;;;;;;;4950063;28;19926;-69
2021/03/05 06:54:05;;;;;;;;;;;;;;;;;;4949956;28;19934;-71
2021/03/05 06:56:32;;;;;;;;;;;;;;;;;;4952533;28;19980;-71
2021/03/05 06:58:58;;;;;;;;;;;;;;;;;;4952043;28;19926;-68
2021/03/05 07:01:24;;;;;;;;;;;;;;;;;;4948564;28;19935;-69
2021/03/05 07:03:51;;;;;;;;;;;;;;;;;;4952427;28;19927;-69
2021/03/05 07:06:17;;;;;;;;;;;;;;;;;;4951220;28;19931;-69
2021/03/05 07:08:44;;;;;;;;;;;;;;;;;;4946126;28;19926;-69
2021/03/05 07:11:11;;;;;;;;;;;;;;;;;;4951874;28;19927;-69
2021/03/05 07:13:37;;;;;;;;;;;;;;;;;;4948754;28;20316;-69
2021/03/05 07:16:06;;;;;;;;;;;;;;;;;;4950816;28;19931;-69
2021/03/05 07:18:33;;;;;;;;;;;;;;;;;;4950544;28;19930;-69
2021/03/05 07:20:59;;;;;;;;;;;;;;;;;;4945903;28;19926;-69
2021/03/05 07:23:26;;;;;;;;;;;;;;;;;;4949915;28;20354;-68
2021/03/05 07:25:52;;;;;;;;;;;;;;;;;;4949769;28;19927;-68
2021/03/05 07:28:19;;;;;;;;;;;;;;;;;;4946557;28;19930;-69
2021/03/05 07:30:45;;;;;;;;;;;;;;;;;;4947684;28;19927;-68
2021/03/05 07:33:12;;;;;;;;;;;;;;;;;;4945337;28;19934;-69
2021/03/05 07:35:40;;;;;;;;;;;;;;;;;;4948155;28;19933;-68
2021/03/05 07:38:06;;;;;;;;;;;;;;;;;;4944836;28;19926;-68
2021/03/05 07:40:34;;;;;;;;;;;;;;;;;;4946013;28;19931;-68
2021/03/05 07:43:01;;;;;;;;;;;;;;;;;;4947449;28;19930;-69
2021/03/05 07:45:27;;;;;;;;;;;;;;;;;;4948998;28;19935;-67
2021/03/05 07:47:54;;;;;;;;;;;;;;;;;;4948044;28;19926;-68
2021/03/05 07:50:20;;;;;;;;;;;;;;;;;;4952114;28;19937;-68
2021/03/05 07:52:47;;;;;;;;;;;;;;;;;;4947042;28;19935;-67
2021/03/05 07:55:13;;;;;;;;;;;;;;;;;;4951052;29;20438;-67
2021/03/05 07:57:47;;;;;;;;;;;;;;;;;;4950546;28;20017;-68
2021/03/05 08:00:13;;;;;;;;;;;;;;;;;;4946518;28;20295;-68
2021/03/05 08:02:40;;;;;;;;;;;;;;;;;;4943845;28;19930;-68
2021/03/05 08:05:06;;;;;;;;;;;;;;;;;;4948517;28;19930;-69
2021/03/05 08:07:33;;;;;;;;;;;;;;;;;;4946898;28;20017;-68
2021/03/05 08:09:59;;;;;;;;;;;;;;;;;;4946314;28;20072;-68
2021/03/05 08:12:28;;;;;;;;;;;;;;;;;;4948070;28;19954;-68
2021/03/05 08:14:54;;;;;;;;;;;;;;;;;;4945399;28;20025;-68
2021/03/05 08:17:21;;;;;;;;;;;;;;;;;;4945725;28;19927;-68
2021/03/05 08:19:51;;;;;;;;;;;;;;;;;;4950563;28;20003;-67
2021/03/05 08:22:18;;;;;;;;;;;;;;;;;;4943830;28;19927;-67
2021/03/05 08:24:44;;;;;;;;;;;;;;;;;;4947897;28;19930;-67
2021/03/05 08:27:11;;;;;;;;;;;;;;;;;;4946694;28;20411;-68
2021/03/05 08:29:37;;;;;;;;;;;;;;;;;;4952941;28;19926;-69
2021/03/05 08:32:04;;;;;;;;;;;;;;;;;;4948109;28;19931;-66
2021/03/05 08:34:31;;;;;;;;;;;;;;;;;;4948027;28;19974;-68
2021/03/05 08:36:58;;;;;;;;;;;;;;;;;;4947834;28;19934;-69
2021/03/05 08:39:26;;;;;;;;;;;;;;;;;;4946968;28;19938;-68
2021/03/05 08:41:53;;;;;;;;;;;;;;;;;;4951204;28;20391;-68
2021/03/05 08:44:19;;;;;;;;;;;;;;;;;;4947625;28;19931;-66
2021/03/05 08:46:47;;;;;;;;;;;;;;;;;;4947923;28;19926;-67
2021/03/05 08:49:13;;;;;;;;;;;;;;;;;;4948818;28;19931;-68
2021/03/05 08:51:40;;;;;;;;;;;;;;;;;;4953345;28;19934;-67
2021/03/05 08:54:07;;;;;;;;;;;;;;;;;;4953237;28;20019;-66
2021/03/05 08:56:33;;;;;;;;;;;;;;;;;;4953891;28;20686;-67
2021/03/05 08:59:00;;;;;;;;;;;;;;;;;;4948007;28;19926;-68
2021/03/05 09:01:26;;;;;;;;;;;;;;;;;;4952014;28;20045;-67
2021/03/05 09:03:53;;;;;;;;;;;;;;;;;;4949351;28;19934;-68
2021/03/05 09:06:19;;;;;;;;;;;;;;;;;;4947434;28;19931;-67
2021/03/05 09:08:46;;;;;;;;;;;;;;;;;;4946968;28;19966;-69
2021/03/05 09:11:12;;;;;;;;;;;;;;;;;;4951964;28;19933;-68
2021/03/05 09:13:39;;;;;;;;;;;;;;;;;;4949952;28;20371;-70
2021/03/05 09:16:05;;;;;;;;;;;;;;;;;;4947704;28;19926;-69
2021/03/05 09:18:32;;;;;;;;;;;;;;;;;;4947780;28;19981;-70
2021/03/05 09:20:58;;;;;;;;;;;;;;;;;;4947054;28;20379;-69
2021/03/05 09:23:29;;;;;;;;;;;;;;;;;;4946704;28;19973;-68
2021/03/05 09:25:55;;;;;;;;;;;;;;;;;;4943940;28;20027;-64
2021/03/05 09:28:22;;;;;;;;;;;;;;;;;;4944532;28;19926;-71
2021/03/05 09:30:48;;;;;;;;;;;;;;;;;;4945900;28;20391;-70
2021/03/05 09:33:15;;;;;;;;;;;;;;;;;;4945009;28;20002;-70
2021/03/05 09:35:41;;;;;;;;;;;;;;;;;;4943777;28;19946;-70
2021/03/05 09:38:08;;;;;;;;;;;;;;;;;;4939349;28;20401;-69
2021/03/05 09:40:34;;;;;;;;;;;;;;;;;;4944876;28;19930;-69
2021/03/05 09:43:01;;;;;;;;;;;;;;;;;;4948881;28;19933;-69
2021/03/05 09:45:27;;;;;;;;;;;;;;;;;;4956965;28;19926;-69
2021/03/05 09:47:54;;;;;;;;;;;;;;;;;;4949560;28;19927;-69
2021/03/05 09:50:20;;;;;;;;;;;;;;;;;;4944854;28;20327;-71
2021/03/05 09:52:47;;;;;;;;;;;;;;;;;;4946087;28;19934;-71
2021/03/05 09:55:13;;;;;;;;;;;;;;;;;;4945930;28;20025;-71
2021/03/05 09:57:40;;;;;;;;;;;;;;;;;;4945625;28;20025;-70
2021/03/05 10:00:06;;;;;;;;;;;;;;;;;;4943732;28;20442;-71
2021/03/05 10:02:33;;;;;;;;;;;;;;;;;;4946493;28;19930;-70
2021/03/05 10:04:59;;;;;;;;;;;;;;;;;;4943535;28;20029;-72
2021/03/05 10:07:26;;;;;;;;;;;;;;;;;;4944405;28;20022;-69
2021/03/05 10:09:52;;;;;;;;;;;;;;;;;;4942963;28;20395;-68
2021/03/05 10:12:19;;;;;;;;;;;;;;;;;;4944310;28;19977;-68
2021/03/05 10:14:47;;;;;;;;;;;;;;;;;;4943530;28;19926;-70
2021/03/05 10:17:13;;;;;;;;;;;;;;;;;;4943126;28;19966;-70
2021/03/05 10:19:40;;;;;;;;;;;;;;;;;;4945762;28;20006;-68
2021/03/05 10:22:07;;;;;;;;;;;;;;;;;;4942664;28;20086;-70
2021/03/05 10:24:33;;;;;;;;;;;;;;;;;;4944036;28;19930;-69
2021/03/05 10:27:14;;;;;;;;;;;;;;;;;;4944164;28;20301;-69
2021/03/05 10:29:41;;;;;;;;;;;;;;;;;;4944855;28;19930;-68
2021/03/05 10:32:07;;;;;;;;;;;;;;;;;;4945227;28;19933;-68
2021/03/05 10:34:34;;;;;;;;;;;;;;;;;;4945821;28;20334;-67
2021/03/05 10:37:00;;;;;;;;;;;;;;;;;;4942490;28;19933;-69
2021/03/05 10:39:27;;;;;;;;;;;;;;;;;;4943742;28;20299;-69
2021/03/05 10:41:53;;;;;;;;;;;;;;;;;;4946597;28;19938;-67
2021/03/05 10:44:20;;;;;;;;;;;;;;;;;;4942664;28;20314;-67
2021/03/05 10:46:46;;;;;;;;;;;;;;;;;;4943146;28;20287;-68
2021/03/05 10:49:13;;;;;;;;;;;;;;;;;;4943701;28;20021;-68
2021/03/05 10:51:39;;;;;;;;;;;;;;;;;;4943186;28;20033;-68
2021/03/05 10:54:06;;;;;;;;;;;;;;;;;;4940773;28;19933;-68
2021/03/05 10:56:33;;;;;;;;;;;;;;;;;;4942434;28;19934;-67
2021/03/05 10:59:00;;;;;;;;;;;;;;;;;;4944615;28;20375;-68
2021/03/05 11:01:26;;;;;;;;;;;;;;;;;;4943622;28;19926;-68
2021/03/05 11:03:53;;;;;;;;;;;;;;;;;;4944577;28;19930;-68
2021/03/05 11:06:19;;;;;;;;;;;;;;;;;;4942275;28;19974;-68
2021/03/05 11:08:46;;;;;;;;;;;;;;;;;;4941721;28;19934;-67
2021/03/05 11:11:12;;;;;;;;;;;;;;;;;;4945084;28;20025;-69
2021/03/05 11:13:39;;;;;;;;;;;;;;;;;;4944743;28;19933;-68
2021/03/05 11:16:05;;;;;;;;;;;;;;;;;;4945900;28;20020;-67
2021/03/05 11:18:32;;;;;;;;;;;;;;;;;;4941377;28;19927;-68
2021/03/05 11:20:58;;;;;;;;;;;;;;;;;;4942915;28;20022;-68
2021/03/05 11:23:25;;;;;;;;;;;;;;;;;;4940656;28;19933;-68
2021/03/05 11:25:52;;;;;;;;;;;;;;;;;;4942555;28;20288;-66
2021/03/05 11:28:18;;;;;;;;;;;;;;;;;;4952419;28;19930;-68
2021/03/05 11:30:45;;;;;;;;;;;;;;;;;;4960103;28;19966;-68
2021/03/05 11:33:11;;;;;;;;;;;;;;;;;;4957694;29;19926;-68
2021/03/05 11:35:38;;;;;;;;;;;;;;;;;;4947669;28;19949;-67
2021/03/05 11:38:08;;;;;;;;;;;;;;;;;;4948806;29;19937;-68
2021/03/05 11:40:35;;;;;;;;;;;;;;;;;;4948892;28;19930;-67
2021/03/05 11:43:01;;;;;;;;;;;;;;;;;;4950088;28;20303;-67
2021/03/05 11:45:28;;;;;;;;;;;;;;;;;;4944539;28;20478;-68
2021/03/05 11:47:54;;;;;;;;;;;;;;;;;;4944401;28;19934;-67
2021/03/05 11:50:21;;;;;;;;;;;;;;;;;;4943936;28;19926;-67
2021/03/05 11:52:47;;;;;;;;;;;;;;;;;;4942581;28;19942;-68
2021/03/05 11:55:14;;;;;;;;;;;;;;;;;;4943324;28;19935;-68
2021/03/05 11:57:40;;;;;;;;;;;;;;;;;;4946337;28;19934;-68
2021/03/05 12:00:07;;;;;;;;;;;;;;;;;;4947999;28;19934;-68
2021/03/05 12:02:33;;;;;;;;;;;;;;;;;;4948089;28;19930;-69
2021/03/05 12:05:00;;;;;;;;;;;;;;;;;;4950621;28;19926;-67
2021/03/05 12:07:26;;;;;;;;;;;;;;;;;;4951719;28;19926;-67
2021/03/05 12:09:53;;;;;;;;;;;;;;;;;;4951960;28;19934;-67
2021/03/05 12:12:19;;;;;;;;;;;;;;;;;;4949368;28;20025;-69
2021/03/05 12:14:46;;;;;;;;;;;;;;;;;;4950443;28;20371;-68
2021/03/05 12:17:14;;;;;;;;;;;;;;;;;;4952062;28;19930;-68
2021/03/05 12:19:40;;;;;;;;;;;;;;;;;;4946007;28;20285;-68
2021/03/05 12:22:07;;;;;;;;;;;;;;;;;;4953744;28;19970;-69
2021/03/05 12:24:33;;;;;;;;;;;;;;;;;;4948074;28;19930;-68
2021/03/05 12:27:00;;;;;;;;;;;;;;;;;;4945976;28;19954;-70
2021/03/05 12:29:26;;;;;;;;;;;;;;;;;;4949427;28;19926;-69
2021/03/05 12:31:53;;;;;;;;;;;;;;;;;;4944377;28;20430;-70
2021/03/05 12:34:19;;;;;;;;;;;;;;;;;;4946908;28;19926;-69
2021/03/05 12:36:46;;;;;;;;;;;;;;;;;;4945527;28;19947;-68
2021/03/05 12:39:12;;;;;;;;;;;;;;;;;;4946074;28;20036;-69
2021/03/05 12:41:39;;;;;;;;;;;;;;;;;;4947309;28;19942;-69
2021/03/05 12:44:05;;;;;;;;;;;;;;;;;;4946188;28;19930;-68
2021/03/05 12:46:32;;;;;;;;;;;;;;;;;;4940066;28;19926;-68
2021/03/05 12:48:58;;;;;;;;;;;;;;;;;;4946926;28;20344;-70
2021/03/05 12:51:25;;;;;;;;;;;;;;;;;;4943819;28;19970;-69
2021/03/05 12:53:51;;;;;;;;;;;;;;;;;;4944837;28;20308;-69
2021/03/05 12:56:18;;;;;;;;;;;;;;;;;;4937971;28;19927;-69
2021/03/05 12:58:44;;;;;;;;;;;;;;;;;;4946683;28;20421;-69
2021/03/05 13:01:11;;;;;;;;;;;;;;;;;;4946321;28;19931;-69
2021/03/05 13:03:37;;;;;;;;;;;;;;;;;;4944755;28;19927;-69
2021/03/05 13:06:04;;;;;;;;;;;;;;;;;;4941366;28;20398;-68
2021/03/05 13:08:30;;;;;;;;;;;;;;;;;;4937353;28;19939;-67
2021/03/05 13:10:57;;;;;;;;;;;;;;;;;;4942538;28;20303;-66
2021/03/05 13:13:23;;;;;;;;;;;;;;;;;;4944124;28;20017;-67
2021/03/05 13:15:50;;;;;;;;;;;;;;;;;;4944746;28;19935;-67
2021/03/05 13:18:16;;;;;;;;;;;;;;;;;;4941612;28;19935;-67
2021/03/05 13:20:43;;;;;;;;;;;;;;;;;;4940803;28;19970;-67
2021/03/05 13:23:09;;;;;;;;;;;;;;;;;;4947884;28;19933;-67
2021/03/05 13:25:38;;;;;;;;;;;;;;;;;;4942373;28;19927;-66
2021/03/05 13:28:05;;;;;;;;;;;;;;;;;;4947779;28;20147;-69
2021/03/05 13:30:32;;;;;;;;;;;;;;;;;;4944441;28;20453;-67
2021/03/05 13:33:00;;;;;;;;;;;;;;;;;;4941259;28;19993;-69
2021/03/05 13:35:26;;;;;;;;;;;;;;;;;;4941901;28;19926;-68
2021/03/05 13:37:53;;;;;;;;;;;;;;;;;;4943880;28;20228;-69
2021/03/05 13:40:19;;;;;;;;;;;;;;;;;;4946021;28;19985;-69
2021/03/05 13:42:46;;;;;;;;;;;;;;;;;;4940797;28;20432;-69
2021/03/05 13:45:12;;;;;;;;;;;;;;;;;;4947140;28;19930;-68
2021/03/05 13:47:39;;;;;;;;;;;;;;;;;;4941573;28;19931;-69
2021/03/05 13:50:05;;;;;;;;;;;;;;;;;;4946494;28;19927;-67
2021/03/05 13:52:32;;;;;;;;;;;;;;;;;;4937475;28;20018;-69
2021/03/05 13:54:58;;;;;;;;;;;;;;;;;;4942014;28;20366;-70
2021/03/05 13:57:25;;;;;;;;;;;;;;;;;;4939987;28;19933;-67
2021/03/05 13:59:51;;;;;;;;;;;;;;;;;;4940198;28;19926;-69
2021/03/05 14:02:18;;;;;;;;;;;;;;;;;;4942261;28;19997;-69
2021/03/05 14:04:44;;;;;;;;;;;;;;;;;;4941659;28;20304;-68
2021/03/05 14:07:11;;;;;;;;;;;;;;;;;;4940679;28;19926;-68
2021/03/05 14:09:37;;;;;;;;;;;;;;;;;;4945079;28;19926;-69
2021/03/05 14:12:04;;;;;;;;;;;;;;;;;;4941056;28;20294;-69
2021/03/05 14:14:30;;;;;;;;;;;;;;;;;;4944198;28;19948;-67
2021/03/05 14:16:57;;;;;;;;;;;;;;;;;;4945713;28;20215;-69
2021/03/05 14:19:23;;;;;;;;;;;;;;;;;;4945596;28;19931;-69
2021/03/05 14:21:49;;;;;;;;;;;;;;;;;;4944930;28;19926;-69
2021/03/05 14:24:16;;;;;;;;;;;;;;;;;;4942313;28;19985;-67
2021/03/05 14:26:45;;;;;;;;;;;;;;;;;;4949097;28;19984;-69
2021/03/05 14:29:12;;;;;;;;;;;;;;;;;;4946011;28;19946;-68
2021/03/05 14:31:38;;;;;;;;;;;;;;;;;;4941862;28;20013;-68
2021/03/05 14:34:05;;;;;;;;;;;;;;;;;;4948271;28;20439;-68
2021/03/05 14:36:31;;;;;;;;;;;;;;;;;;4947202;28;19941;-69
2021/03/05 14:39:00;;;;;;;;;;;;;;;;;;4941693;28;20191;-68
2021/03/05 14:41:27;;;;;;;;;;;;;;;;;;4942955;28;19934;-70
2021/03/05 14:43:55;;;;;;;;;;;;;;;;;;4946120;28;19930;-69
2021/03/05 14:46:22;;;;;;;;;;;;;;;;;;4944704;28;20057;-68
2021/03/05 14:48:49;;;;;;;;;;;;;;;;;;4942400;28;19989;-69
2021/03/05 14:51:15;;;;;;;;;;;;;;;;;;4944896;28;19941;-68
2021/03/05 14:53:42;;;;;;;;;;;;;;;;;;4945761;28;19974;-69
2021/03/05 14:56:08;;;;;;;;;;;;;;;;;;4945416;28;19937;-69
2021/03/05 14:58:35;;;;;;;;;;;;;;;;;;4945786;28;19927;-68
2021/03/05 15:01:04;;;;;;;;;;;;;;;;;;4944868;28;19927;-69
2021/03/05 15:03:30;;;;;;;;;;;;;;;;;;4945891;28;19996;-68
2021/03/05 15:05:57;;;;;;;;;;;;;;;;;;4949760;28;19938;-69
2021/03/05 15:08:23;;;;;;;;;;;;;;;;;;4946924;28;20336;-70
2021/03/05 15:10:50;;;;;;;;;;;;;;;;;;4944553;28;19926;-69
2021/03/05 15:13:16;;;;;;;;;;;;;;;;;;4944277;28;20387;-70
2021/03/05 15:15:43;;;;;;;;;;;;;;;;;;4946917;28;19927;-70
2021/03/05 15:18:09;;;;;;;;;;;;;;;;;;4943812;28;19927;-69
2021/03/05 15:20:36;;;;;;;;;;;;;;;;;;4947089;28;19973;-68
2021/03/05 15:23:02;;;;;;;;;;;;;;;;;;4947861;28;19937;-69
2021/03/05 15:25:29;;;;;;;;;;;;;;;;;;4942916;28;20359;-69
2021/03/05 15:27:55;;;;;;;;;;;;;;;;;;4948702;28;20006;-69
2021/03/05 15:30:22;;;;;;;;;;;;;;;;;;4947668;28;20293;-68
2021/03/05 15:32:48;;;;;;;;;;;;;;;;;;4948541;28;19926;-68
2021/03/05 15:35:14;;;;;;;;;;;;;;;;;;4948355;28;19974;-68
2021/03/05 15:37:41;;;;;;;;;;;;;;;;;;4949339;28;19986;-68
2021/03/05 15:40:07;;;;;;;;;;;;;;;;;;4950584;28;19926;-69
2021/03/05 15:42:34;;;;;;;;;;;;;;;;;;4946914;28;20021;-67
2021/03/05 15:45:00;;;;;;;;;;;;;;;;;;4949857;28;19934;-69
2021/03/05 15:47:30;;;;;;;;;;;;;;;;;;4949035;28;19934;-68
2021/03/05 15:49:57;;;;;;;;;;;;;;;;;;4948859;28;20051;-68
2021/03/05 15:52:23;;;;;;;;;;;;;;;;;;4956075;28;19930;-68
2021/03/05 15:54:50;;;;;;;;;;;;;;;;;;4964956;28;19926;-72
2021/03/05 15:57:16;;;;;;;;;;;;;;;;;;4950900;28;20005;-69
2021/03/05 15:59:43;;;;;;;;;;;;;;;;;;4961904;28;19954;-68
2021/03/05 16:02:09;;;;;;;;;;;;;;;;;;4967930;28;19927;-69
2021/03/05 16:04:36;;;;;;;;;;;;;;;;;;4969587;28;19926;-69
2021/03/05 16:07:02;;;;;;;;;;;;;;;;;;4943567;28;20037;-70
2021/03/05 16:09:29;;;;;;;;;;;;;;;;;;4954522;28;20033;-68
2021/03/05 16:11:56;;;;;;;;;;;;;;;;;;4960849;28;20018;-69
2021/03/05 16:14:25;;;;;;;;;;;;;;;;;;4953220;28;20403;-69
2021/03/05 16:16:56;;;;;;;;;;;;;;;;;;4951240;28;19962;-69
2021/03/05 16:19:23;;;;;;;;;;;;;;;;;;4948345;28;19993;-68
2021/03/05 16:21:50;;;;;;;;;;;;;;;;;;4952385;28;19931;-69
2021/03/05 16:24:16;;;;;;;;;;;;;;;;;;4953064;28;19930;-69
2021/03/05 16:26:44;;;;;;;;;;;;;;;;;;4959019;28;19932;-69
2021/03/05 16:29:11;;;;;;;;;;;;;;;;;;4949312;28;19962;-68
2021/03/05 16:31:39;;;;;;;;;;;;;;;;;;4952375;28;19927;-68
2021/03/05 16:34:06;;;;;;;;;;;;;;;;;;4956746;28;19926;-68
2021/03/05 16:36:32;;;;;;;;;;;;;;;;;;4949301;28;19998;-70
2021/03/05 16:39:02;;;;;;;;;;;;;;;;;;4950363;28;19978;-68
2021/03/05 16:41:28;;;;;;;;;;;;;;;;;;4950583;28;20455;-69